createdAt,value
2023-02-03T05:12:15.830Z,4.23
2023-02-03T05:14:45.825Z,4.28
2023-02-03T05:17:16.719Z,4.41
2023-02-03T05:19:45.547Z,4.47
2023-02-03T05:22:16.320Z,4.50
2023-02-03T05:24:49.188Z,4.54
2023-02-03T05:27:19.337Z,4.64
2023-02-03T05:29:48.153Z,4.70
2023-02-03T05:32:20.581Z,4.71
2023-02-03T05:34:52.074Z,4.76
2023-02-03T05:37:25.600Z,4.82
2023-02-03T05:40:16.625Z,4.90
2023-02-03T05:42:49.284Z,4.95
2023-02-03T05:45:18.517Z,5.00
2023-02-03T05:47:52.019Z,5.06
2023-02-03T05:50:22.862Z,5.11
2023-02-03T05:52:54.599Z,5.19
2023-02-03T05:55:23.563Z,5.27
2023-02-03T05:57:55.790Z,5.33
2023-02-03T06:00:30.655Z,5.41
2023-02-03T06:03:03.481Z,5.44
2023-02-03T06:05:40.883Z,5.50
2023-02-03T06:08:10.291Z,5.56
2023-02-03T06:13:28.200Z,5.65
2023-02-03T06:15:59.600Z,5.70
2023-02-03T06:18:31.079Z,5.72
2023-02-03T06:21:02.578Z,5.77
2023-02-03T06:23:39.172Z,5.81
2023-02-03T06:26:10.567Z,5.87
2023-02-03T06:28:43.409Z,5.87
2023-02-03T06:31:15.578Z,5.96
2023-02-03T06:33:46.197Z,6.01
2023-02-03T06:36:15.170Z,6.07
2023-02-03T06:38:52.667Z,6.10
2023-02-03T06:41:30.052Z,6.14
2023-02-03T06:44:03.827Z,6.25
2023-02-03T06:46:37.461Z,6.29
2023-02-03T06:49:16.600Z,6.35
2023-02-03T06:51:46.607Z,6.39
2023-02-03T06:54:20.659Z,6.40
2023-02-03T06:57:09.094Z,6.42
2023-02-03T06:59:46.945Z,6.45
2023-02-03T07:02:18.241Z,6.49
2023-02-03T07:04:48.119Z,6.51
2023-02-03T07:07:19.042Z,6.47
2023-02-03T07:09:48.046Z,6.48
2023-02-03T07:12:18.988Z,6.53
2023-02-03T07:14:56.232Z,6.58
2023-02-03T07:17:25.270Z,6.60
2023-02-03T07:19:54.268Z,6.58
2023-02-03T07:22:23.300Z,6.59
2023-02-03T07:24:52.355Z,6.64
2023-02-03T07:27:28.100Z,6.72
2023-02-03T07:30:00.193Z,6.76
2023-02-03T07:32:35.320Z,6.79
2023-02-03T07:35:04.403Z,6.87
2023-02-03T07:37:35.237Z,6.89
2023-02-03T07:40:07.001Z,6.88
2023-02-03T07:42:39.974Z,6.83
2023-02-03T07:45:15.058Z,6.88
2023-02-03T07:47:49.223Z,6.92
2023-02-03T07:50:20.673Z,6.91
2023-02-03T07:53:00.736Z,6.93
2023-02-03T07:55:36.615Z,6.92
2023-02-03T07:58:05.610Z,6.96
2023-02-03T08:00:36.316Z,6.96
2023-02-03T08:03:07.460Z,6.96
2023-02-03T08:05:36.628Z,7.01
2023-02-03T08:08:10.160Z,7.09
2023-02-03T08:10:42.022Z,7.08
2023-02-03T08:13:15.835Z,7.09
2023-02-03T08:15:49.706Z,7.13
2023-02-03T08:18:24.549Z,7.14
2023-02-03T08:20:55.839Z,7.24
2023-02-03T08:23:29.053Z,7.30
2023-02-03T08:26:00.863Z,7.31
2023-02-03T08:31:16.647Z,7.47
2023-02-03T08:33:53.953Z,7.46
2023-02-03T08:36:22.979Z,7.52
2023-02-03T08:38:54.218Z,7.61
2023-02-03T08:41:24.522Z,7.63
2023-02-03T08:43:54.145Z,7.66
2023-02-03T08:46:26.809Z,7.78
2023-02-03T08:48:56.612Z,7.75
2023-02-03T08:51:31.895Z,7.66
2023-02-03T08:54:00.840Z,7.63
2023-02-03T08:56:31.504Z,7.58
2023-02-03T08:59:04.923Z,7.68
2023-02-03T09:01:37.743Z,7.70
2023-02-03T09:04:08.301Z,7.68
2023-02-03T09:06:38.719Z,7.63
2023-02-03T09:09:07.652Z,7.64
2023-02-03T09:11:38.672Z,7.72
2023-02-03T09:14:07.618Z,7.64
2023-02-03T09:16:38.339Z,7.67
2023-02-03T09:19:16.787Z,7.62
2023-02-03T09:21:49.133Z,7.67
2023-02-03T09:24:26.793Z,7.66
2023-02-03T09:27:02.510Z,7.68
2023-02-03T09:29:33.429Z,7.69
2023-02-03T09:32:08.934Z,7.68
2023-02-03T09:34:43.511Z,7.67
2023-02-03T09:37:12.408Z,7.70
2023-02-03T09:39:43.645Z,7.71
2023-02-03T09:42:51.394Z,7.73
2023-02-03T09:45:25.871Z,7.68
2023-02-03T09:48:00.241Z,7.73
2023-02-03T09:50:39.582Z,7.75
2023-02-03T09:53:19.138Z,7.79
2023-02-03T09:55:50.800Z,7.73
2023-02-03T09:58:23.229Z,7.73
2023-02-03T10:00:58.238Z,7.64
2023-02-03T10:03:40.768Z,7.73
2023-02-03T10:06:21.628Z,7.78
2023-02-03T10:09:19.117Z,7.80
2023-02-03T10:12:19.423Z,7.75
2023-02-03T10:15:04.074Z,7.71
2023-02-03T10:17:39.249Z,7.73
2023-02-03T10:20:21.542Z,7.48
2023-02-03T10:23:03.172Z,7.68
2023-02-03T10:25:43.465Z,7.76
2023-02-03T10:28:23.319Z,7.69
2023-02-03T10:30:58.232Z,7.66
2023-02-03T10:33:29.276Z,7.69
2023-02-03T10:36:06.955Z,7.66
2023-02-03T10:38:48.765Z,7.65
2023-02-03T10:41:20.315Z,7.57
2023-02-03T10:43:57.687Z,7.64
2023-02-03T10:46:31.934Z,7.69
2023-02-03T10:49:05.313Z,7.75
2023-02-03T10:51:48.904Z,7.80
2023-02-03T10:54:42.789Z,7.79
2023-02-03T10:57:17.512Z,7.86
2023-02-03T10:59:50.301Z,7.82
2023-02-03T11:02:29.501Z,7.93
2023-02-03T11:05:19.388Z,7.92
2023-02-03T11:07:54.683Z,8.06
2023-02-03T11:10:35.790Z,8.10
2023-02-03T11:13:31.227Z,7.86
2023-02-03T11:16:13.625Z,8.07
2023-02-03T11:18:55.693Z,8.05
2023-02-03T11:22:16.074Z,8.06
2023-02-03T11:24:26.011Z,7.91
2023-02-03T11:26:58.987Z,7.95
2023-02-03T11:29:34.820Z,7.96
2023-02-03T11:32:07.736Z,7.94
2023-02-03T11:34:38.526Z,7.96
2023-02-03T11:37:34.947Z,7.94
2023-02-03T11:40:29.082Z,8.05
2023-02-03T11:43:05.729Z,8.03
2023-02-03T11:45:42.369Z,8.21
2023-02-03T11:48:24.726Z,8.23
2023-02-03T11:51:19.418Z,8.27
2023-02-03T11:54:08.039Z,8.20
2023-02-03T11:57:02.235Z,8.25
2023-02-03T11:59:47.335Z,8.26
2023-02-03T12:02:49.481Z,8.21
2023-02-03T12:05:54.363Z,6.58
2023-02-03T12:12:14.876Z,5.36
2023-02-03T12:14:56.523Z,5.44
2023-02-03T12:17:50.783Z,5.62
2023-02-03T12:20:40.748Z,5.90
2023-02-03T12:23:39.081Z,6.10
2023-02-03T12:26:18.593Z,6.17
2023-02-03T12:29:05.386Z,6.19
2023-02-03T12:31:44.486Z,6.32
2023-02-03T12:34:23.871Z,6.38
2023-02-03T12:37:03.134Z,6.44
2023-02-03T12:39:43.278Z,6.48
2023-02-03T12:42:22.267Z,6.64
2023-02-03T12:45:02.199Z,6.74
2023-02-03T12:47:41.949Z,6.85
2023-02-03T12:50:26.898Z,6.98
2023-02-03T12:53:01.929Z,6.98
2023-02-03T12:55:35.969Z,6.80
2023-02-03T12:58:08.904Z,6.73
2023-02-03T13:00:51.798Z,6.69
2023-02-03T13:03:36.948Z,6.68
2023-02-03T13:06:13.164Z,6.67
2023-02-03T13:08:51.816Z,6.83
2023-02-03T13:11:32.553Z,6.96
2023-02-03T13:14:13.742Z,7.05
2023-02-03T13:16:53.138Z,7.29
2023-02-03T13:19:30.482Z,7.43
2023-02-03T13:22:05.314Z,7.49
2023-02-03T13:24:36.347Z,7.59
2023-02-03T13:27:47.161Z,7.65
2023-02-03T13:30:42.459Z,7.78
2023-02-03T13:33:43.445Z,7.92
2023-02-03T13:36:48.232Z,7.91
2023-02-03T13:39:46.502Z,8.08
2023-02-03T13:42:32.659Z,8.17
2023-02-03T13:45:10.272Z,8.08
2023-02-03T13:47:47.202Z,7.95
2023-02-03T13:50:28.251Z,7.88
2023-02-03T13:53:14.573Z,7.81
2023-02-03T13:55:58.743Z,7.78
2023-02-03T13:58:34.411Z,7.76
2023-02-03T14:01:35.795Z,7.76
2023-02-03T14:04:10.264Z,7.83
2023-02-03T14:07:03.460Z,7.88
2023-02-03T14:09:41.760Z,7.83
2023-02-03T14:12:41.892Z,7.76
2023-02-03T14:15:34.167Z,7.61
2023-02-03T14:18:33.964Z,7.26
2023-02-03T14:21:32.919Z,6.31
2023-02-03T14:24:13.284Z,6.19
2023-02-03T14:26:46.640Z,6.14
2023-02-03T14:29:28.126Z,6.10
2023-02-03T14:32:00.659Z,6.12
2023-02-03T14:34:40.324Z,6.18
2023-02-03T14:37:23.179Z,6.15
2023-02-03T14:40:32.871Z,5.99
2023-02-03T14:43:28.863Z,5.93
2023-02-03T14:46:30.088Z,5.87
2023-02-03T14:49:35.392Z,5.85
2023-02-03T14:52:18.585Z,5.80
2023-02-03T14:55:01.307Z,5.79
2023-02-03T14:57:49.218Z,5.78
2023-02-03T15:00:32.044Z,5.78
2023-02-03T15:03:30.474Z,5.76
2023-02-03T15:06:04.996Z,5.84
2023-02-03T15:08:44.134Z,6.02
2023-02-03T15:11:33.887Z,6.07
2023-02-03T15:14:24.908Z,6.04
2023-02-03T15:16:59.387Z,6.07
2023-02-03T15:19:32.821Z,5.99
2023-02-03T15:22:02.240Z,5.95
2023-02-03T15:24:39.314Z,5.96
2023-02-03T15:27:25.399Z,5.93
2023-02-03T15:29:57.250Z,5.98
2023-02-03T15:32:36.128Z,5.94
2023-02-03T15:35:23.056Z,5.96
2023-02-03T15:37:59.684Z,5.97
2023-02-03T15:40:38.369Z,5.98
2023-02-03T15:43:15.496Z,6.02
2023-02-03T15:45:55.365Z,6.10
2023-02-03T15:48:33.803Z,6.13
2023-02-03T15:51:16.566Z,6.24
2023-02-03T15:53:54.815Z,6.35
2023-02-03T15:56:35.467Z,6.50
2023-02-03T15:59:04.952Z,6.66
2023-02-03T16:01:36.569Z,6.68
2023-02-03T16:04:15.077Z,6.73
2023-02-03T16:06:51.517Z,6.79
2023-02-03T16:09:35.422Z,6.81
2023-02-03T16:12:09.520Z,6.88
2023-02-03T16:14:41.338Z,6.91
2023-02-03T16:17:27.648Z,6.87
2023-02-03T16:20:25.734Z,6.85
2023-02-03T16:23:23.663Z,6.80
2023-02-03T16:26:18.837Z,6.80
2023-02-03T16:29:16.339Z,6.85
2023-02-03T16:32:05.047Z,6.84
2023-02-03T16:34:52.185Z,6.83
2023-02-03T16:37:44.558Z,6.91
2023-02-03T16:40:36.308Z,6.86
2023-02-03T16:43:24.796Z,6.84
2023-02-03T16:46:14.187Z,6.85
2023-02-03T16:49:00.724Z,6.86
2023-02-03T16:51:41.820Z,6.82
2023-02-03T16:54:29.923Z,6.42
2023-02-03T16:57:06.849Z,6.79
2023-02-03T16:59:36.153Z,6.91
2023-02-03T17:02:08.016Z,6.86
2023-02-03T17:04:42.848Z,6.86
2023-02-03T17:07:23.987Z,6.96
2023-02-03T17:10:40.049Z,6.99
2023-02-03T17:22:01.014Z,7.12
2023-02-03T17:24:34.667Z,7.22
2023-02-03T17:27:07.088Z,7.24
2023-02-03T17:29:40.590Z,7.26
2023-02-03T17:32:17.009Z,7.25
2023-02-03T17:34:47.761Z,7.19
2023-02-03T17:37:40.308Z,7.21
2023-02-03T17:53:24.433Z,7.20
2023-02-03T17:56:05.106Z,7.19
2023-02-03T17:59:17.131Z,7.28
2023-02-03T18:02:27.131Z,6.48
2023-02-03T18:04:59.271Z,7.25
2023-02-03T18:10:19.084Z,7.17
2023-02-03T18:12:54.282Z,7.14
2023-02-03T18:15:25.176Z,7.11
2023-02-03T18:18:04.512Z,7.07
2023-02-03T18:20:39.683Z,7.03
2023-02-03T18:23:09.174Z,7.04
2023-02-03T18:25:48.384Z,7.07
2023-02-03T18:28:20.442Z,7.01
2023-02-03T18:31:15.766Z,7.00
2023-02-03T18:33:52.670Z,6.92
2023-02-03T18:36:30.880Z,6.96
2023-02-03T18:39:00.788Z,6.94
2023-02-03T18:41:49.666Z,7.00
2023-02-03T18:44:24.230Z,6.90
2023-02-03T18:47:32.925Z,6.80
2023-02-03T18:50:13.074Z,6.99
2023-02-03T18:53:05.512Z,7.03
2023-02-03T18:55:40.655Z,6.88
2023-02-03T18:58:20.017Z,7.02
2023-02-03T19:00:59.201Z,6.98
2023-02-03T19:03:32.977Z,7.01
2023-02-03T19:06:16.190Z,7.01
2023-02-03T19:08:53.523Z,6.93
2023-02-03T19:11:34.917Z,6.92
2023-02-03T19:14:12.506Z,6.89
2023-02-03T19:16:59.358Z,6.90
2023-02-03T19:19:44.150Z,6.82
2023-02-03T19:22:23.520Z,6.86
2023-02-03T19:25:02.960Z,6.92
2023-02-03T19:27:34.623Z,6.98
2023-02-03T19:30:23.269Z,6.88
2023-02-03T19:32:56.750Z,6.95
2023-02-03T19:35:28.854Z,6.97
2023-02-03T19:38:04.222Z,7.02
2023-02-03T19:40:36.536Z,7.03
2023-02-03T19:43:13.908Z,7.03
2023-02-03T19:45:43.949Z,7.03
2023-02-03T19:48:30.606Z,7.05
2023-02-03T19:51:29.341Z,7.09
2023-02-03T19:54:38.505Z,7.07
2023-02-03T19:57:27.106Z,7.10
2023-02-03T20:00:25.013Z,7.06
2023-02-03T20:03:14.191Z,7.08
2023-02-03T20:07:09.380Z,7.02
2023-02-03T20:09:08.508Z,6.99
2023-02-03T20:11:43.088Z,6.94
2023-02-03T20:14:29.697Z,6.97
2023-02-03T20:17:03.397Z,6.96
2023-02-03T20:20:01.728Z,6.93
2023-02-03T20:22:55.658Z,7.03
2023-02-03T20:25:57.426Z,7.01
2023-02-03T20:29:01.800Z,6.99
2023-02-03T20:32:06.483Z,6.99
2023-02-03T20:34:46.425Z,6.96
2023-02-03T20:37:24.773Z,6.86
2023-02-03T20:40:06.281Z,6.81
2023-02-03T20:42:39.298Z,6.83
2023-02-03T20:45:26.950Z,6.79
2023-02-03T20:48:10.831Z,6.71
2023-02-03T20:50:48.005Z,6.62
2023-02-03T20:53:31.281Z,6.65
2023-02-03T20:56:16.886Z,6.55
2023-02-03T20:59:04.258Z,6.56
2023-02-03T21:01:49.870Z,6.43
2023-02-03T21:04:45.593Z,6.40
2023-02-03T21:07:18.251Z,6.36
2023-02-03T21:09:49.504Z,6.34
2023-02-03T21:12:39.914Z,6.28
2023-02-03T21:15:23.208Z,6.17
2023-02-03T21:18:35.448Z,6.11
2023-02-03T21:21:17.744Z,6.13
2023-02-03T21:23:54.231Z,6.06
2023-02-03T21:26:38.705Z,6.01
2023-02-03T21:29:27.717Z,6.01
2023-02-03T21:32:06.475Z,6.06
2023-02-03T21:34:51.766Z,6.06
2023-02-03T21:38:42.682Z,6.04
2023-02-03T21:40:58.015Z,6.09
2023-02-03T21:44:16.346Z,6.07
2023-02-03T21:47:10.833Z,6.09
2023-02-03T21:49:37.972Z,6.15
2023-02-03T21:52:23.727Z,6.16
2023-02-03T21:54:53.174Z,6.07
2023-02-03T21:57:26.052Z,6.09
2023-02-03T21:59:59.116Z,6.05
2023-02-03T22:02:53.612Z,6.11
2023-02-03T22:05:40.293Z,6.16
2023-02-03T22:08:22.563Z,6.19
2023-02-03T22:11:01.093Z,6.23
2023-02-03T22:13:33.606Z,6.22
2023-02-03T22:16:26.801Z,6.24
2023-02-03T22:18:58.152Z,6.23
2023-02-03T22:21:27.830Z,6.18
2023-02-03T22:23:59.777Z,6.14
2023-02-03T22:26:31.259Z,6.04
2023-02-03T22:29:19.801Z,5.98
2023-02-03T22:31:53.168Z,5.81
2023-02-03T22:34:23.578Z,5.63
2023-02-03T22:36:55.241Z,5.45
2023-02-03T22:39:32.313Z,5.31
2023-02-03T22:42:03.516Z,5.16
2023-02-03T22:44:32.698Z,5.09
2023-02-03T22:47:04.775Z,4.91
2023-02-03T22:49:33.794Z,4.76
2023-02-03T22:52:02.715Z,4.57
2023-02-03T22:54:32.952Z,4.43
2023-02-03T22:57:01.838Z,4.30
2023-02-03T22:59:30.754Z,4.23
2023-02-03T23:02:02.317Z,4.20
2023-02-03T23:04:31.234Z,4.11
2023-02-03T23:07:01.316Z,4.05
2023-02-03T23:09:31.628Z,3.96
2023-02-03T23:12:00.640Z,3.97
2023-02-03T23:14:30.451Z,4.02
2023-02-03T23:16:59.661Z,4.05
2023-02-03T23:19:29.011Z,4.10
2023-02-03T23:21:59.358Z,4.12
2023-02-03T23:24:34.422Z,4.14
2023-02-03T23:27:04.252Z,4.01
2023-02-03T23:29:34.301Z,3.97
2023-02-03T23:32:03.510Z,3.93
2023-02-03T23:34:50.134Z,3.93
2023-02-03T23:37:19.484Z,3.86
2023-02-03T23:39:49.944Z,3.91
2023-02-03T23:42:20.907Z,3.93
2023-02-03T23:44:55.969Z,3.90
2023-02-03T23:47:26.540Z,3.91
2023-02-03T23:49:57.429Z,3.88
2023-02-03T23:52:26.318Z,3.79
2023-02-03T23:54:56.611Z,3.82
2023-02-03T23:57:25.541Z,3.79
2023-02-03T23:59:54.323Z,3.72
